Latest Weather Observations for Tatura

IDV60801

Issued at 4:31 pm EST Saturday 30 May 2015 (issued every 30 minutes, with the page automatically refreshed every 10 minutes)

About weather observations | Map of weather stations | Latest weather observations for VIC | Other Formats
Station Details ID: 081049 Name: TATURA INST SUSTAINABLE AG Lat: -36.44 Lon: 145.27 Height: 114.0 m
Data from the previous 72 hours. | See also: Recent months at Tatura
Date/Time
EST
Temp
°C
App
Temp
°C
Dew
Point
Rel
Hum
%
Delta-T
°C
Wind Press
QNH
hPa
Press
MSL
hPa
Rain
since 9 am
mm
Dir
 
Spd
km/h
Gust
km/h
Spd
kts
Gust
kts
30/04:30pm 14.7 10.2 4.1 49 4.9 - 17 24 9 13 - - 0.0
30/04:00pm 15.0 10.0 4.4 49 4.9 - 20 26 11 14 - - 0.0
30/03:30pm 14.6 9.7 4.9 52 4.6 - 20 28 11 15 - - 0.0
30/03:00pm 15.4 11.1 5.3 51 4.8 - 17 22 9 12 - - 0.0
30/02:30pm 14.7 10.0 5.0 52 4.6 - 19 24 10 13 - - 0.0
30/02:00pm 14.8 9.1 4.8 51 4.7 - 24 32 13 17 - - 0.0
30/01:30pm 16.0 9.4 4.4 46 5.5 - 28 37 15 20 - - 0.0
30/01:00pm 16.0 10.8 5.6 50 5.0 - 22 30 12 16 - - 0.0
30/12:30pm 14.6 7.6 4.3 50 4.8 - 30 39 16 21 - - 0.0
30/12:00pm 14.8 10.2 6.4 57 4.1 - 20 30 11 16 - - 0.0
30/11:30am 14.5 11.1 7.5 63 3.5 - 15 28 8 15 - - 0.0
30/11:00am 13.8 10.4 7.8 67 3.0 - 15 20 8 11 - - 0.0
30/10:30am 13.0 9.5 7.2 68 2.8 - 15 22 8 12 - - 0.0
30/10:00am 12.2 8.8 7.5 73 2.3 - 15 20 8 11 - - 0.0
30/09:30am 11.2 8.5 7.5 78 1.8 - 11 17 6 9 - - 0.0
30/09:00am 10.7 7.6 7.2 79 1.7 - 13 15 7 8 - - 0.0
30/08:30am 10.4 7.7 7.3 81 1.5 - 11 15 6 8 - - 0.0
30/08:00am 10.1 7.7 7.2 82 1.4 - 9 13 5 7 - - 0.0
30/07:30am 9.8 7.8 7.1 83 1.3 - 7 11 4 6 - - 0.0
30/07:00am 9.8 7.4 7.1 83 1.3 - 9 13 5 7 - - 0.0
30/06:30am 9.7 7.7 7.0 83 1.3 - 7 9 4 5 - - 0.0
30/06:00am 9.9 7.9 7.0 82 1.4 - 7 11 4 6 - - 0.0
30/05:30am 10.0 8.0 6.9 81 1.5 - 7 11 4 6 - - 0.0
30/05:00am 9.9 7.8 6.8 81 1.5 - 7 9 4 5 - - 0.0
30/04:30am 9.9 8.8 7.0 82 1.4 - 2 9 1 5 - - 0.0
30/04:00am 10.1 9.3 6.6 79 1.6 CALM 0 0 0 0 - - 0.0
30/03:30am 10.2 9.1 6.7 79 1.7 - 2 6 1 3 - - 0.0
30/03:00am 10.5 8.6 6.6 77 1.8 - 6 9 3 5 - - 0.0
30/02:30am 10.6 8.1 6.6 76 1.9 - 9 11 5 6 - - 0.0
30/02:00am 10.8 8.3 6.6 75 2.0 - 9 13 5 7 - - 0.0
30/01:30am 10.7 8.6 6.6 76 1.9 - 7 9 4 5 - - 0.0
30/01:00am 10.9 8.8 6.8 76 2.0 - 7 9 4 5 - - 0.0
30/12:30am 10.9 8.5 6.8 76 2.0 - 9 11 5 6 - - 0.0
30/12:00am 10.9 8.8 6.6 75 2.0 - 7 9 4 5 - - 0.0
 
Date/Time
EST
Temp
°C
App
Temp
°C
Dew
Point
Rel
Hum
%
Delta-T
°C
Wind Press
QNH
hPa
Press
MSL
hPa
Rain
since 9 am
mm
Dir
 
Spd
km/h
Gust
km/h
Spd
kts
Gust
kts
29/11:30pm 11.3 8.5 6.8 74 2.1 - 11 13 6 7 - - 0.0
29/11:00pm 10.8 10.0 6.7 76 1.9 CALM 0 0 0 0 - - 0.0
29/10:30pm 10.7 10.0 6.8 77 1.9 CALM 0 0 0 0 - - 0.0
29/10:00pm 10.7 8.6 6.8 77 1.9 - 7 9 4 5 - - 0.0
29/09:30pm 10.6 9.1 6.9 78 1.8 - 4 9 2 5 - - 0.0
29/09:00pm 10.8 8.3 6.7 76 1.9 - 9 13 5 7 - - 0.0
29/08:30pm 10.9 10.2 6.8 76 2.0 CALM 0 0 0 0 - - 0.0
29/08:00pm 11.3 9.3 6.4 72 2.3 - 6 7 3 4 - - 0.0
29/07:30pm 11.5 10.7 6.6 72 2.3 CALM 0 0 0 0 - - 0.0
29/07:00pm 11.7 10.9 6.4 70 2.5 CALM 0 0 0 0 - - 0.0
29/06:30pm 11.2 10.5 6.9 75 2.1 CALM 0 0 0 0 - - 0.0
29/06:00pm 11.8 9.6 6.1 68 2.7 - 7 7 4 4 - - 0.0
29/05:30pm 11.9 9.7 6.0 67 2.8 - 7 9 4 5 - - 0.0
29/05:00pm 12.6 9.9 5.5 62 3.3 - 9 13 5 7 - - 0.0
29/04:30pm 14.0 10.1 5.4 56 4.1 - 15 22 8 12 - - 0.0
29/04:00pm 15.0 12.2 5.2 52 4.7 - 9 13 5 7 - - 0.0
29/03:30pm 14.0 11.3 5.6 57 4.0 - 9 13 5 7 - - 0.0
29/03:00pm 14.8 11.3 5.3 53 4.5 - 13 20 7 11 - - 0.0
29/02:30pm 14.7 11.1 5.0 52 4.6 - 13 19 7 10 - - 0.0
29/02:00pm 15.1 10.9 5.9 54 4.4 - 17 24 9 13 - - 0.0
29/01:30pm 14.7 10.6 6.0 56 4.2 - 17 24 9 13 - - 0.0
29/01:00pm 14.6 11.5 7.4 62 3.6 - 13 20 7 11 - - 0.0
29/12:30pm 14.0 10.2 7.5 65 3.2 - 17 22 9 12 - - 0.0
29/12:00pm 12.6 9.2 7.7 72 2.4 - 15 20 8 11 - - 0.0
29/11:30am 13.1 10.0 9.0 76 2.1 - 15 20 8 11 - - 0.0
29/11:00am 12.2 9.2 9.2 82 1.5 - 15 20 8 11 - - 0.0
29/10:30am 12.5 10.8 9.7 83 1.4 - 9 11 5 6 - - 0.0
29/10:00am 11.3 8.7 9.4 88 1.0 - 13 17 7 9 - - 0.0
29/09:30am 10.3 7.2 8.9 91 0.7 - 15 20 8 11 - - 0.0
29/09:00am 9.9 6.8 8.7 92 0.6 - 15 20 8 11 - - 2.2
29/08:30am 9.3 7.7 8.7 96 0.3 - 7 11 4 6 - - 2.2
29/08:00am 8.0 5.6 7.2 95 0.4 - 9 13 5 7 - - 2.2
29/07:30am 8.5 5.5 7.6 94 0.4 - 13 17 7 9 - - 2.2
29/07:00am 9.0 6.4 7.9 93 0.5 - 11 17 6 9 - - 2.2
29/06:30am 8.7 6.5 7.9 95 0.4 - 9 11 5 6 - - 2.0
29/06:00am 8.9 6.7 8.0 94 0.4 - 9 11 5 6 - - 2.0
29/05:30am 9.4 7.9 8.5 94 0.4 - 6 9 3 5 - - 2.0
29/05:00am 9.6 7.2 8.5 93 0.5 - 11 17 6 9 - - 2.0
29/04:30am 9.2 7.5 8.3 94 0.4 - 7 9 4 5 - - 2.0
29/04:00am 9.1 7.0 8.2 94 0.4 - 9 13 5 7 - - 2.0
29/03:30am 9.3 6.8 8.2 93 0.5 - 11 15 6 8 - - 2.0
29/03:00am 9.0 6.4 7.9 93 0.5 - 11 15 6 8 - - 2.0
29/02:30am 8.3 5.6 7.4 94 0.4 - 11 15 6 8 - - 2.0
29/02:00am 8.2 6.0 7.8 97 0.2 - 9 11 5 6 - - 2.0
29/01:30am 8.5 6.4 8.2 98 0.1 - 9 11 5 6 - - 2.0
29/01:00am 9.1 7.5 8.6 97 0.2 - 7 7 4 4 - - 2.0
29/12:30am 9.6 7.8 9.3 98 0.1 - 9 11 5 6 - - 2.0
29/12:00am 9.6 7.8 9.3 98 0.1 - 9 11 5 6 - - 2.0
 
Date/Time
EST
Temp
°C
App
Temp
°C
Dew
Point
Rel
Hum
%
Delta-T
°C
Wind Press
QNH
hPa
Press
MSL
hPa
Rain
since 9 am
mm
Dir
 
Spd
km/h
Gust
km/h
Spd
kts
Gust
kts
28/11:30pm 9.9 8.5 9.4 97 0.3 - 7 9 4 5 - - 2.0
28/11:00pm 10.8 9.2 10.3 97 0.3 - 9 13 5 7 - - 2.0
28/10:30pm 10.3 8.5 9.5 95 0.4 - 9 11 5 6 - - 2.0
28/10:00pm 11.5 10.1 10.9 96 0.3 - 9 11 5 6 - - 2.0
28/09:30pm 11.5 10.1 11.0 97 0.3 - 9 11 5 6 - - 2.0
28/09:00pm 10.8 9.2 10.2 96 0.3 - 9 11 5 6 - - 2.0
28/08:30pm 11.1 9.2 10.5 96 0.3 - 11 13 6 7 - - 2.0
28/08:00pm 11.1 11.3 10.5 96 0.3 CALM 0 0 0 0 - - 2.0
28/07:30pm 10.7 10.7 9.8 94 0.5 CALM 0 0 0 0 - - 2.0
28/07:00pm 11.9 10.8 10.8 93 0.6 - 7 9 4 5 - - 2.0
28/06:30pm 12.2 10.8 10.8 91 0.7 - 9 11 5 6 - - 2.0
28/06:00pm 13.0 11.7 11.1 88 1.0 - 9 11 5 6 - - 2.0
28/05:30pm 14.8 12.5 11.8 82 1.6 - 15 22 8 12 - - 2.0
28/05:00pm 15.5 13.7 12.1 80 1.9 - 13 22 7 12 - - 2.0
28/04:30pm 16.2 13.6 12.0 76 2.3 - 17 24 9 13 - - 2.0
28/04:00pm 16.5 14.0 12.3 76 2.3 - 17 26 9 14 - - 2.0
28/03:30pm 16.5 15.1 13.4 82 1.7 - 13 20 7 11 - - 2.0
28/03:00pm 16.1 14.2 13.0 82 1.7 - 15 20 8 11 - - 2.0
28/02:30pm 16.0 14.9 14.2 89 1.0 - 13 19 7 10 - - 2.0
28/02:00pm 16.6 15.8 13.9 84 1.5 - 11 15 6 8 - - 1.2
28/01:30pm 16.7 15.1 14.0 84 1.5 - 15 20 8 11 - - 1.0
28/01:00pm 18.2 14.6 12.0 67 3.4 - 22 28 12 15 - - 0.0
28/12:30pm 18.6 15.6 12.4 67 3.5 - 20 28 11 15 - - 0.0
28/12:00pm 17.3 15.3 12.8 75 2.5 - 15 20 8 11 - - 0.0
28/11:30am 17.5 15.6 13.0 75 2.5 - 15 19 8 10 - - 0.0
28/11:00am 16.5 14.9 12.8 79 2.1 - 13 22 7 12 - - 0.0
28/10:30am 14.4 12.1 11.7 84 1.5 - 15 20 8 11 - - 0.0
28/10:00am 13.7 11.8 11.9 89 1.0 - 13 20 7 11 - - 0.0
28/09:30am 12.4 10.8 11.5 94 0.5 - 11 17 6 9 - - 0.0
28/09:00am 11.6 9.8 10.8 95 0.4 - 11 17 6 9 - - 0.0
28/08:30am 10.8 9.3 10.5 98 0.2 - 9 13 5 7 - - 0.0
28/08:00am 10.0 8.3 9.7 98 0.2 - 9 13 5 7 - - 0.0
28/07:30am 9.6 7.8 9.3 98 0.1 - 9 13 5 7 - - 0.0
28/07:00am 9.7 7.1 9.4 98 0.1 - 13 17 7 9 - - 0.0
28/06:30am 9.5 7.3 9.2 98 0.1 - 11 15 6 8 - - 0.0
28/06:00am 9.5 7.3 9.2 98 0.1 - 11 13 6 7 - - 0.0
28/05:30am 9.5 7.3 9.2 98 0.1 - 11 13 6 7 - - 0.0
28/05:00am 9.7 7.9 9.4 98 0.1 - 9 11 5 6 - - 0.0
28/04:30am 9.6 7.8 9.3 98 0.1 - 9 13 5 7 - - 0.0
28/04:00am 9.9 8.5 9.4 97 0.3 - 7 11 4 6 - - 0.0
28/03:30am 10.2 8.1 9.6 96 0.3 - 11 13 6 7 - - 0.0
28/03:00am 10.4 8.3 9.8 96 0.3 - 11 13 6 7 - - 0.0
28/02:30am 10.7 8.6 9.9 95 0.4 - 11 13 6 7 - - 0.0
28/02:00am 11.0 8.6 10.1 94 0.5 - 13 17 7 9 - - 0.0
28/01:30am 11.4 9.4 10.3 93 0.6 - 11 17 6 9 - - 0.0
28/01:00am 11.3 8.6 10.2 93 0.6 - 15 19 8 10 - - 0.0
28/12:30am 11.1 9.1 10.0 93 0.6 - 11 17 6 9 - - 0.0
28/12:00am 11.3 8.9 10.0 92 0.7 - 13 19 7 10 - - 0.0
 
Date/Time
EST
Temp
°C
App
Temp
°C
Dew
Point
Rel
Hum
%
Delta-T
°C
Wind Press
QNH
hPa
Press
MSL
hPa
Rain
since 9 am
mm
Dir
 
Spd
km/h
Gust
km/h
Spd
kts
Gust
kts
27/11:30pm 11.3 8.5 10.0 92 0.7 - 15 22 8 12 - - 0.0
27/11:00pm 11.3 8.5 9.9 91 0.7 - 15 20 8 11 - - 0.0
27/10:30pm 11.4 8.6 10.0 91 0.7 - 15 20 8 11 - - 0.0
27/10:00pm 11.6 9.2 9.9 89 0.9 - 13 19 7 10 - - 0.0
27/09:30pm 11.8 9.0 9.9 88 1.0 - 15 19 8 10 - - 0.0
27/09:00pm 12.1 8.9 9.8 86 1.2 - 17 24 9 13 - - 0.0
27/08:30pm 12.5 9.3 10.0 85 1.3 - 17 24 9 13 - - 0.0
27/08:00pm 12.7 9.9 10.1 84 1.3 - 15 20 8 11 - - 0.0
27/07:30pm 12.7 9.9 9.9 83 1.4 - 15 19 8 10 - - 0.0
27/07:00pm 13.3 10.2 10.3 82 1.6 - 17 20 9 11 - - 0.0
27/06:30pm 13.9 11.2 10.3 79 1.9 - 15 20 8 11 - - 0.0
27/06:00pm 14.5 12.5 10.3 76 2.2 - 11 13 6 7 - - 0.0
27/05:30pm 15.7 13.9 10.7 72 2.7 - 11 13 6 7 - - 0.0
27/05:00pm 16.8 14.6 10.9 68 3.2 - 13 17 7 9 - - 0.0

Other Formats:

Comma delimited format used in spreadsheet applications
http://www.bom.gov.au/fwo/IDV60801/IDV60801.95836.axf

JavaScript Object Notation format (JSON) in row-major order
http://www.bom.gov.au/fwo/IDV60801/IDV60801.95836.json